sensor_id;sensor_type;location;lat;lon;timestamp;P1;durP1;ratioP1;P2;durP2;ratioP2
72924;SDS011;61070;50.794;7.054;2023-12-14T00:00:04;18.98;;;8.30;;
72924;SDS011;61070;50.794;7.054;2023-12-14T00:01:06;16.50;;;8.32;;
72924;SDS011;61070;50.794;7.054;2023-12-14T00:02:10;22.17;;;8.95;;
72924;SDS011;61070;50.794;7.054;2023-12-14T00:03:10;19.58;;;9.13;;
72924;SDS011;61070;50.794;7.054;2023-12-14T00:04:10;17.75;;;8.85;;
72924;SDS011;61070;50.794;7.054;2023-12-14T00:05:11;21.50;;;8.85;;
72924;SDS011;61070;50.794;7.054;2023-12-14T00:06:11;19.00;;;9.15;;
72924;SDS011;61070;50.794;7.054;2023-12-14T00:07:12;16.63;;;8.68;;
72924;SDS011;61070;50.794;7.054;2023-12-14T00:08:15;16.90;;;8.77;;
72924;SDS011;61070;50.794;7.054;2023-12-14T00:09:15;18.85;;;9.05;;
72924;SDS011;61070;50.794;7.054;2023-12-14T00:10:15;18.30;;;8.98;;
72924;SDS011;61070;50.794;7.054;2023-12-14T00:11:17;22.55;;;8.57;;
72924;SDS011;61070;50.794;7.054;2023-12-14T00:12:18;18.85;;;9.05;;
72924;SDS011;61070;50.794;7.054;2023-12-14T00:13:18;19.50;;;9.52;;
72924;SDS011;61070;50.794;7.054;2023-12-14T00:14:18;18.48;;;9.30;;
72924;SDS011;61070;50.794;7.054;2023-12-14T00:15:19;18.90;;;9.73;;
72924;SDS011;61070;50.794;7.054;2023-12-14T00:16:19;19.27;;;10.25;;
72924;SDS011;61070;50.794;7.054;2023-12-14T00:17:19;23.05;;;9.35;;
72924;SDS011;61070;50.794;7.054;2023-12-14T00:18:19;20.27;;;10.15;;
72924;SDS011;61070;50.794;7.054;2023-12-14T00:19:20;23.98;;;11.38;;
72924;SDS011;61070;50.794;7.054;2023-12-14T00:20:23;22.02;;;11.05;;
72924;SDS011;61070;50.794;7.054;2023-12-14T00:21:24;21.77;;;12.45;;
72924;SDS011;61070;50.794;7.054;2023-12-14T00:22:24;26.92;;;13.35;;
72924;SDS011;61070;50.794;7.054;2023-12-14T00:23:24;26.65;;;13.00;;
72924;SDS011;61070;50.794;7.054;2023-12-14T00:24:24;27.60;;;14.10;;
72924;SDS011;61070;50.794;7.054;2023-12-14T00:25:25;28.88;;;14.10;;
72924;SDS011;61070;50.794;7.054;2023-12-14T00:26:25;30.95;;;13.93;;
72924;SDS011;61070;50.794;7.054;2023-12-14T00:27:25;36.50;;;13.88;;
72924;SDS011;61070;50.794;7.054;2023-12-14T00:28:26;29.77;;;15.43;;
72924;SDS011;61070;50.794;7.054;2023-12-14T00:29:26;30.73;;;16.13;;
72924;SDS011;61070;50.794;7.054;2023-12-14T00:30:26;30.73;;;16.30;;
72924;SDS011;61070;50.794;7.054;2023-12-14T00:31:27;33.50;;;15.38;;
72924;SDS011;61070;50.794;7.054;2023-12-14T00:32:27;36.90;;;16.98;;
72924;SDS011;61070;50.794;7.054;2023-12-14T00:33:27;33.00;;;16.42;;
72924;SDS011;61070;50.794;7.054;2023-12-14T00:34:27;33.40;;;18.00;;
72924;SDS011;61070;50.794;7.054;2023-12-14T00:35:28;41.97;;;17.85;;
72924;SDS011;61070;50.794;7.054;2023-12-14T00:36:28;28.20;;;15.02;;
72924;SDS011;61070;50.794;7.054;2023-12-14T00:37:28;36.72;;;15.75;;
72924;SDS011;61070;50.794;7.054;2023-12-14T00:38:29;35.20;;;15.05;;
72924;SDS011;61070;50.794;7.054;2023-12-14T00:39:29;30.65;;;15.32;;
72924;SDS011;61070;50.794;7.054;2023-12-14T00:40:29;38.50;;;16.90;;
72924;SDS011;61070;50.794;7.054;2023-12-14T00:41:29;33.55;;;17.40;;
72924;SDS011;61070;50.794;7.054;2023-12-14T00:42:30;35.10;;;15.95;;
72924;SDS011;61070;50.794;7.054;2023-12-14T00:43:30;36.92;;;16.00;;
72924;SDS011;61070;50.794;7.054;2023-12-14T00:44:31;30.98;;;15.52;;
72924;SDS011;61070;50.794;7.054;2023-12-14T00:45:31;36.53;;;16.27;;
72924;SDS011;61070;50.794;7.054;2023-12-14T00:46:31;33.28;;;16.10;;
72924;SDS011;61070;50.794;7.054;2023-12-14T00:47:31;34.72;;;15.35;;
72924;SDS011;61070;50.794;7.054;2023-12-14T00:48:32;35.30;;;15.98;;
72924;SDS011;61070;50.794;7.054;2023-12-14T00:49:32;27.58;;;14.93;;
72924;SDS011;61070;50.794;7.054;2023-12-14T00:50:32;31.17;;;15.75;;
72924;SDS011;61070;50.794;7.054;2023-12-14T00:51:32;37.17;;;16.83;;
72924;SDS011;61070;50.794;7.054;2023-12-14T00:52:33;32.63;;;15.57;;
72924;SDS011;61070;50.794;7.054;2023-12-14T00:53:33;34.67;;;15.48;;
72924;SDS011;61070;50.794;7.054;2023-12-14T00:54:33;34.28;;;16.27;;
72924;SDS011;61070;50.794;7.054;2023-12-14T00:55:34;34.03;;;16.38;;
72924;SDS011;61070;50.794;7.054;2023-12-14T00:56:34;26.80;;;15.30;;
72924;SDS011;61070;50.794;7.054;2023-12-14T00:57:34;36.85;;;14.98;;
72924;SDS011;61070;50.794;7.054;2023-12-14T00:58:34;38.22;;;16.80;;
72924;SDS011;61070;50.794;7.054;2023-12-14T00:59:35;31.98;;;15.75;;
72924;SDS011;61070;50.794;7.054;2023-12-14T01:00:35;25.38;;;14.65;;
72924;SDS011;61070;50.794;7.054;2023-12-14T01:01:35;27.77;;;14.98;;
72924;SDS011;61070;50.794;7.054;2023-12-14T01:02:36;28.50;;;15.70;;
72924;SDS011;61070;50.794;7.054;2023-12-14T01:03:37;41.00;;;17.08;;
72924;SDS011;61070;50.794;7.054;2023-12-14T01:04:37;33.25;;;16.15;;
72924;SDS011;61070;50.794;7.054;2023-12-14T01:05:37;35.78;;;16.65;;
72924;SDS011;61070;50.794;7.054;2023-12-14T01:06:37;26.23;;;14.77;;
72924;SDS011;61070;50.794;7.054;2023-12-14T01:07:38;33.42;;;16.40;;
72924;SDS011;61070;50.794;7.054;2023-12-14T01:08:38;33.17;;;16.27;;
72924;SDS011;61070;50.794;7.054;2023-12-14T01:09:38;40.72;;;17.50;;
72924;SDS011;61070;50.794;7.054;2023-12-14T01:10:39;34.08;;;17.60;;
72924;SDS011;61070;50.794;7.054;2023-12-14T01:11:39;35.72;;;17.30;;
72924;SDS011;61070;50.794;7.054;2023-12-14T01:12:39;43.38;;;17.70;;
72924;SDS011;61070;50.794;7.054;2023-12-14T01:13:39;37.28;;;17.60;;
72924;SDS011;61070;50.794;7.054;2023-12-14T01:14:40;31.55;;;16.08;;
72924;SDS011;61070;50.794;7.054;2023-12-14T01:15:40;29.90;;;16.48;;
72924;SDS011;61070;50.794;7.054;2023-12-14T01:16:40;31.48;;;17.88;;
72924;SDS011;61070;50.794;7.054;2023-12-14T01:17:40;37.85;;;18.60;;
72924;SDS011;61070;50.794;7.054;2023-12-14T01:18:41;35.13;;;17.40;;
72924;SDS011;61070;50.794;7.054;2023-12-14T01:19:41;31.13;;;16.85;;
72924;SDS011;61070;50.794;7.054;2023-12-14T01:20:41;38.40;;;17.35;;
72924;SDS011;61070;50.794;7.054;2023-12-14T01:21:42;30.02;;;15.98;;
72924;SDS011;61070;50.794;7.054;2023-12-14T01:22:42;34.10;;;16.88;;
72924;SDS011;61070;50.794;7.054;2023-12-14T01:23:42;34.85;;;16.77;;
72924;SDS011;61070;50.794;7.054;2023-12-14T01:24:43;42.20;;;19.15;;
72924;SDS011;61070;50.794;7.054;2023-12-14T01:25:44;42.92;;;21.33;;
72924;SDS011;61070;50.794;7.054;2023-12-14T01:26:44;46.90;;;22.30;;
72924;SDS011;61070;50.794;7.054;2023-12-14T01:27:44;47.03;;;22.65;;
72924;SDS011;61070;50.794;7.054;2023-12-14T01:28:44;58.13;;;25.88;;
72924;SDS011;61070;50.794;7.054;2023-12-14T01:29:45;55.55;;;25.58;;
72924;SDS011;61070;50.794;7.054;2023-12-14T01:30:45;60.35;;;25.63;;
72924;SDS011;61070;50.794;7.054;2023-12-14T01:31:45;60.38;;;27.42;;
72924;SDS011;61070;50.794;7.054;2023-12-14T01:32:46;60.60;;;26.05;;
72924;SDS011;61070;50.794;7.054;2023-12-14T01:33:46;66.85;;;28.00;;
72924;SDS011;61070;50.794;7.054;2023-12-14T01:34:46;61.67;;;28.83;;
72924;SDS011;61070;50.794;7.054;2023-12-14T01:35:46;57.22;;;27.80;;
72924;SDS011;61070;50.794;7.054;2023-12-14T01:36:47;67.28;;;28.00;;
72924;SDS011;61070;50.794;7.054;2023-12-14T01:37:47;67.55;;;30.73;;
72924;SDS011;61070;50.794;7.054;2023-12-14T01:38:47;72.20;;;30.00;;
72924;SDS011;61070;50.794;7.054;2023-12-14T01:39:48;74.18;;;31.00;;
72924;SDS011;61070;50.794;7.054;2023-12-14T01:40:48;63.83;;;29.48;;
72924;SDS011;61070;50.794;7.054;2023-12-14T01:41:48;77.30;;;31.55;;
72924;SDS011;61070;50.794;7.054;2023-12-14T01:42:49;73.68;;;29.90;;
72924;SDS011;61070;50.794;7.054;2023-12-14T01:43:49;78.35;;;31.15;;
72924;SDS011;61070;50.794;7.054;2023-12-14T01:44:50;76.90;;;31.58;;
72924;SDS011;61070;50.794;7.054;2023-12-14T01:45:50;80.57;;;30.70;;
72924;SDS011;61070;50.794;7.054;2023-12-14T01:46:50;72.90;;;32.25;;
72924;SDS011;61070;50.794;7.054;2023-12-14T01:47:50;82.47;;;33.22;;
72924;SDS011;61070;50.794;7.054;2023-12-14T01:48:51;86.10;;;33.25;;
72924;SDS011;61070;50.794;7.054;2023-12-14T01:49:53;86.57;;;33.60;;
72924;SDS011;61070;50.794;7.054;2023-12-14T01:50:53;96.10;;;34.72;;
72924;SDS011;61070;50.794;7.054;2023-12-14T01:51:53;77.05;;;30.80;;
72924;SDS011;61070;50.794;7.054;2023-12-14T01:52:53;79.40;;;33.97;;
72924;SDS011;61070;50.794;7.054;2023-12-14T01:53:54;73.82;;;32.90;;
72924;SDS011;61070;50.794;7.054;2023-12-14T01:54:54;79.70;;;32.17;;
72924;SDS011;61070;50.794;7.054;2023-12-14T01:55:55;90.05;;;34.15;;
72924;SDS011;61070;50.794;7.054;2023-12-14T01:56:55;76.18;;;32.28;;
72924;SDS011;61070;50.794;7.054;2023-12-14T01:57:56;81.13;;;32.97;;
72924;SDS011;61070;50.794;7.054;2023-12-14T01:58:56;86.00;;;34.72;;
72924;SDS011;61070;50.794;7.054;2023-12-14T01:59:56;82.15;;;33.05;;
72924;SDS011;61070;50.794;7.054;2023-12-14T02:01:03;80.10;;;32.47;;
72924;SDS011;61070;50.794;7.054;2023-12-14T02:02:10;73.50;;;31.67;;
72924;SDS011;61070;50.794;7.054;2023-12-14T02:03:10;80.80;;;33.00;;
72924;SDS011;61070;50.794;7.054;2023-12-14T02:04:12;81.82;;;32.97;;
72924;SDS011;61070;50.794;7.054;2023-12-14T02:05:13;85.30;;;34.58;;
72924;SDS011;61070;50.794;7.054;2023-12-14T02:06:13;82.55;;;34.15;;
72924;SDS011;61070;50.794;7.054;2023-12-14T02:07:13;80.00;;;33.70;;
72924;SDS011;61070;50.794;7.054;2023-12-14T02:08:14;80.13;;;33.80;;
72924;SDS011;61070;50.794;7.054;2023-12-14T02:09:14;74.72;;;31.63;;
72924;SDS011;61070;50.794;7.054;2023-12-14T02:10:14;85.07;;;33.60;;
72924;SDS011;61070;50.794;7.054;2023-12-14T02:11:14;83.85;;;33.83;;
72924;SDS011;61070;50.794;7.054;2023-12-14T02:12:15;85.50;;;33.58;;
72924;SDS011;61070;50.794;7.054;2023-12-14T02:13:15;84.10;;;33.75;;
72924;SDS011;61070;50.794;7.054;2023-12-14T02:14:16;84.75;;;35.05;;
72924;SDS011;61070;50.794;7.054;2023-12-14T02:15:16;91.93;;;36.30;;
72924;SDS011;61070;50.794;7.054;2023-12-14T02:16:16;93.28;;;36.70;;
72924;SDS011;61070;50.794;7.054;2023-12-14T02:17:16;90.75;;;35.33;;
72924;SDS011;61070;50.794;7.054;2023-12-14T02:18:17;91.97;;;35.33;;
72924;SDS011;61070;50.794;7.054;2023-12-14T02:19:17;90.55;;;36.28;;
72924;SDS011;61070;50.794;7.054;2023-12-14T02:20:17;90.88;;;36.05;;
72924;SDS011;61070;50.794;7.054;2023-12-14T02:21:17;89.65;;;36.80;;
72924;SDS011;61070;50.794;7.054;2023-12-14T02:22:19;90.82;;;35.92;;
72924;SDS011;61070;50.794;7.054;2023-12-14T02:23:19;94.45;;;38.90;;
72924;SDS011;61070;50.794;7.054;2023-12-14T02:24:19;99.10;;;38.28;;
72924;SDS011;61070;50.794;7.054;2023-12-14T02:25:20;101.82;;;39.40;;
72924;SDS011;61070;50.794;7.054;2023-12-14T02:26:21;88.15;;;36.33;;
72924;SDS011;61070;50.794;7.054;2023-12-14T02:27:22;92.68;;;37.47;;
72924;SDS011;61070;50.794;7.054;2023-12-14T02:28:22;93.60;;;35.67;;
72924;SDS011;61070;50.794;7.054;2023-12-14T02:29:23;89.72;;;35.42;;
72924;SDS011;61070;50.794;7.054;2023-12-14T02:30:23;95.90;;;38.05;;
72924;SDS011;61070;50.794;7.054;2023-12-14T02:31:23;93.75;;;37.08;;
72924;SDS011;61070;50.794;7.054;2023-12-14T02:32:24;98.20;;;38.00;;
72924;SDS011;61070;50.794;7.054;2023-12-14T02:33:24;98.82;;;35.13;;
72924;SDS011;61070;50.794;7.054;2023-12-14T02:34:24;97.93;;;38.85;;
72924;SDS011;61070;50.794;7.054;2023-12-14T02:35:27;92.30;;;35.33;;
72924;SDS011;61070;50.794;7.054;2023-12-14T02:36:27;84.75;;;33.70;;
72924;SDS011;61070;50.794;7.054;2023-12-14T02:37:28;93.32;;;35.83;;
72924;SDS011;61070;50.794;7.054;2023-12-14T02:38:28;87.53;;;35.67;;
72924;SDS011;61070;50.794;7.054;2023-12-14T02:39:28;93.75;;;35.97;;
72924;SDS011;61070;50.794;7.054;2023-12-14T02:40:28;87.20;;;35.03;;
72924;SDS011;61070;50.794;7.054;2023-12-14T02:41:29;91.97;;;38.42;;
72924;SDS011;61070;50.794;7.054;2023-12-14T02:42:29;87.53;;;36.85;;
72924;SDS011;61070;50.794;7.054;2023-12-14T02:43:29;84.78;;;35.60;;
72924;SDS011;61070;50.794;7.054;2023-12-14T02:44:30;104.10;;;38.55;;
72924;SDS011;61070;50.794;7.054;2023-12-14T02:45:30;95.13;;;36.78;;
72924;SDS011;61070;50.794;7.054;2023-12-14T02:46:31;90.07;;;36.53;;
72924;SDS011;61070;50.794;7.054;2023-12-14T02:47:31;91.70;;;36.15;;
72924;SDS011;61070;50.794;7.054;2023-12-14T02:48:31;101.57;;;37.85;;
72924;SDS011;61070;50.794;7.054;2023-12-14T02:49:31;89.75;;;36.83;;
72924;SDS011;61070;50.794;7.054;2023-12-14T02:50:33;86.72;;;37.55;;
72924;SDS011;61070;50.794;7.054;2023-12-14T02:51:33;95.95;;;39.10;;
72924;SDS011;61070;50.794;7.054;2023-12-14T02:52:34;91.65;;;38.20;;
72924;SDS011;61070;50.794;7.054;2023-12-14T02:53:34;102.20;;;38.70;;
72924;SDS011;61070;50.794;7.054;2023-12-14T02:54:34;99.32;;;38.20;;
72924;SDS011;61070;50.794;7.054;2023-12-14T02:55:36;95.63;;;38.40;;
72924;SDS011;61070;50.794;7.054;2023-12-14T02:56:36;102.25;;;39.25;;
72924;SDS011;61070;50.794;7.054;2023-12-14T02:57:36;104.55;;;38.00;;
72924;SDS011;61070;50.794;7.054;2023-12-14T02:58:36;90.45;;;37.25;;
72924;SDS011;61070;50.794;7.054;2023-12-14T02:59:37;97.22;;;37.60;;
72924;SDS011;61070;50.794;7.054;2023-12-14T03:00:37;97.07;;;36.10;;
72924;SDS011;61070;50.794;7.054;2023-12-14T03:01:37;94.93;;;36.78;;
72924;SDS011;61070;50.794;7.054;2023-12-14T03:02:39;89.45;;;36.25;;
72924;SDS011;61070;50.794;7.054;2023-12-14T03:03:39;92.82;;;38.53;;
72924;SDS011;61070;50.794;7.054;2023-12-14T03:04:39;85.97;;;34.72;;
72924;SDS011;61070;50.794;7.054;2023-12-14T03:05:40;84.63;;;34.65;;
72924;SDS011;61070;50.794;7.054;2023-12-14T03:06:40;83.07;;;35.08;;
72924;SDS011;61070;50.794;7.054;2023-12-14T03:07:40;89.00;;;36.33;;
72924;SDS011;61070;50.794;7.054;2023-12-14T03:08:41;95.15;;;38.03;;
72924;SDS011;61070;50.794;7.054;2023-12-14T03:09:41;87.40;;;35.00;;
72924;SDS011;61070;50.794;7.054;2023-12-14T03:10:44;89.80;;;32.78;;
72924;SDS011;61070;50.794;7.054;2023-12-14T03:11:44;85.00;;;35.35;;
72924;SDS011;61070;50.794;7.054;2023-12-14T03:12:45;84.05;;;33.88;;
72924;SDS011;61070;50.794;7.054;2023-12-14T03:13:45;83.22;;;34.60;;
72924;SDS011;61070;50.794;7.054;2023-12-14T03:14:45;82.10;;;32.85;;
72924;SDS011;61070;50.794;7.054;2023-12-14T03:15:46;87.78;;;34.90;;
72924;SDS011;61070;50.794;7.054;2023-12-14T03:16:49;84.20;;;34.35;;
72924;SDS011;61070;50.794;7.054;2023-12-14T03:17:49;76.40;;;33.47;;
72924;SDS011;61070;50.794;7.054;2023-12-14T03:18:49;80.10;;;31.88;;
72924;SDS011;61070;50.794;7.054;2023-12-14T03:19:53;78.63;;;33.20;;
72924;SDS011;61070;50.794;7.054;2023-12-14T03:20:53;81.53;;;32.88;;
72924;SDS011;61070;50.794;7.054;2023-12-14T03:21:53;78.95;;;34.13;;
72924;SDS011;61070;50.794;7.054;2023-12-14T03:22:54;77.68;;;32.42;;
72924;SDS011;61070;50.794;7.054;2023-12-14T03:23:54;77.53;;;32.20;;
72924;SDS011;61070;50.794;7.054;2023-12-14T03:24:54;81.80;;;33.58;;
72924;SDS011;61070;50.794;7.054;2023-12-14T03:25:54;90.43;;;35.15;;
72924;SDS011;61070;50.794;7.054;2023-12-14T03:26:55;77.88;;;34.10;;
72924;SDS011;61070;50.794;7.054;2023-12-14T03:27:55;76.32;;;31.88;;
72924;SDS011;61070;50.794;7.054;2023-12-14T03:28:55;83.40;;;33.42;;
72924;SDS011;61070;50.794;7.054;2023-12-14T03:29:56;86.13;;;33.15;;
72924;SDS011;61070;50.794;7.054;2023-12-14T03:30:56;83.80;;;33.22;;
72924;SDS011;61070;50.794;7.054;2023-12-14T03:31:56;84.65;;;35.13;;
72924;SDS011;61070;50.794;7.054;2023-12-14T03:32:57;84.45;;;33.33;;
72924;SDS011;61070;50.794;7.054;2023-12-14T03:33:57;78.30;;;33.28;;
72924;SDS011;61070;50.794;7.054;2023-12-14T03:34:58;83.63;;;33.95;;
72924;SDS011;61070;50.794;7.054;2023-12-14T03:35:58;84.75;;;34.58;;
72924;SDS011;61070;50.794;7.054;2023-12-14T03:36:59;88.32;;;35.05;;
72924;SDS011;61070;50.794;7.054;2023-12-14T03:37:59;76.40;;;33.40;;
72924;SDS011;61070;50.794;7.054;2023-12-14T03:39:00;77.97;;;32.25;;
72924;SDS011;61070;50.794;7.054;2023-12-14T03:40:00;88.68;;;35.38;;
72924;SDS011;61070;50.794;7.054;2023-12-14T03:41:01;77.10;;;32.67;;
72924;SDS011;61070;50.794;7.054;2023-12-14T03:42:01;73.63;;;32.95;;
72924;SDS011;61070;50.794;7.054;2023-12-14T03:43:02;76.60;;;31.88;;
72924;SDS011;61070;50.794;7.054;2023-12-14T03:44:03;71.70;;;31.00;;
72924;SDS011;61070;50.794;7.054;2023-12-14T03:45:04;72.47;;;32.05;;
72924;SDS011;61070;50.794;7.054;2023-12-14T03:46:04;65.45;;;29.48;;
72924;SDS011;61070;50.794;7.054;2023-12-14T03:47:06;67.10;;;29.75;;
72924;SDS011;61070;50.794;7.054;2023-12-14T03:48:06;63.35;;;27.48;;
72924;SDS011;61070;50.794;7.054;2023-12-14T03:49:06;64.20;;;27.70;;
72924;SDS011;61070;50.794;7.054;2023-12-14T03:50:07;60.53;;;27.83;;
72924;SDS011;61070;50.794;7.054;2023-12-14T03:51:07;68.18;;;26.65;;
72924;SDS011;61070;50.794;7.054;2023-12-14T03:52:08;63.50;;;27.45;;
72924;SDS011;61070;50.794;7.054;2023-12-14T03:53:08;67.95;;;27.70;;
72924;SDS011;61070;50.794;7.054;2023-12-14T03:54:09;64.55;;;27.45;;
72924;SDS011;61070;50.794;7.054;2023-12-14T03:55:09;68.15;;;29.48;;
72924;SDS011;61070;50.794;7.054;2023-12-14T03:56:09;60.15;;;26.80;;
72924;SDS011;61070;50.794;7.054;2023-12-14T03:57:11;64.18;;;27.73;;
72924;SDS011;61070;50.794;7.054;2023-12-14T03:58:11;67.45;;;28.48;;
72924;SDS011;61070;50.794;7.054;2023-12-14T03:59:11;61.47;;;28.05;;
72924;SDS011;61070;50.794;7.054;2023-12-14T04:00:12;64.55;;;28.55;;
72924;SDS011;61070;50.794;7.054;2023-12-14T04:01:20;68.78;;;29.27;;
72924;SDS011;61070;50.794;7.054;2023-12-14T04:02:23;62.17;;;27.33;;
72924;SDS011;61070;50.794;7.054;2023-12-14T04:03:23;61.72;;;26.98;;
72924;SDS011;61070;50.794;7.054;2023-12-14T04:04:24;62.75;;;28.80;;
72924;SDS011;61070;50.794;7.054;2023-12-14T04:05:24;64.88;;;26.58;;
72924;SDS011;61070;50.794;7.054;2023-12-14T04:06:24;66.15;;;28.52;;
72924;SDS011;61070;50.794;7.054;2023-12-14T04:07:25;60.28;;;28.15;;
72924;SDS011;61070;50.794;7.054;2023-12-14T04:08:25;59.83;;;27.95;;
72924;SDS011;61070;50.794;7.054;2023-12-14T04:09:25;62.28;;;28.75;;
72924;SDS011;61070;50.794;7.054;2023-12-14T04:10:25;57.03;;;27.02;;
72924;SDS011;61070;50.794;7.054;2023-12-14T04:11:26;58.95;;;26.38;;
72924;SDS011;61070;50.794;7.054;2023-12-14T04:12:26;56.83;;;26.42;;
72924;SDS011;61070;50.794;7.054;2023-12-14T04:13:26;55.75;;;25.85;;
72924;SDS011;61070;50.794;7.054;2023-12-14T04:14:27;57.53;;;26.70;;
72924;SDS011;61070;50.794;7.054;2023-12-14T04:15:27;49.78;;;24.60;;
72924;SDS011;61070;50.794;7.054;2023-12-14T04:16:28;57.05;;;26.30;;
72924;SDS011;61070;50.794;7.054;2023-12-14T04:17:28;53.42;;;26.30;;
72924;SDS011;61070;50.794;7.054;2023-12-14T04:18:28;60.30;;;27.75;;
72924;SDS011;61070;50.794;7.054;2023-12-14T04:19:28;55.92;;;27.63;;
72924;SDS011;61070;50.794;7.054;2023-12-14T04:20:29;60.65;;;28.23;;
72924;SDS011;61070;50.794;7.054;2023-12-14T04:21:29;63.38;;;27.92;;
72924;SDS011;61070;50.794;7.054;2023-12-14T04:22:29;64.10;;;30.15;;
72924;SDS011;61070;50.794;7.054;2023-12-14T04:23:29;56.45;;;27.17;;
72924;SDS011;61070;50.794;7.054;2023-12-14T04:24:30;63.38;;;27.73;;
72924;SDS011;61070;50.794;7.054;2023-12-14T04:25:30;59.17;;;29.08;;
72924;SDS011;61070;50.794;7.054;2023-12-14T04:26:30;61.85;;;29.45;;
72924;SDS011;61070;50.794;7.054;2023-12-14T04:27:31;62.08;;;28.67;;
72924;SDS011;61070;50.794;7.054;2023-12-14T04:28:31;60.70;;;29.02;;
72924;SDS011;61070;50.794;7.054;2023-12-14T04:29:31;61.97;;;29.25;;
72924;SDS011;61070;50.794;7.054;2023-12-14T04:30:32;59.25;;;29.17;;
72924;SDS011;61070;50.794;7.054;2023-12-14T04:31:33;66.10;;;29.38;;
72924;SDS011;61070;50.794;7.054;2023-12-14T04:32:34;67.90;;;30.38;;
72924;SDS011;61070;50.794;7.054;2023-12-14T04:33:34;73.38;;;31.42;;
72924;SDS011;61070;50.794;7.054;2023-12-14T04:34:34;67.47;;;29.17;;
72924;SDS011;61070;50.794;7.054;2023-12-14T04:35:35;65.55;;;29.52;;
72924;SDS011;61070;50.794;7.054;2023-12-14T04:36:36;63.35;;;28.67;;
72924;SDS011;61070;50.794;7.054;2023-12-14T04:37:36;64.45;;;29.65;;
72924;SDS011;61070;50.794;7.054;2023-12-14T04:38:37;62.55;;;29.80;;
72924;SDS011;61070;50.794;7.054;2023-12-14T04:39:37;60.97;;;27.40;;
72924;SDS011;61070;50.794;7.054;2023-12-14T04:40:37;61.72;;;29.55;;
72924;SDS011;61070;50.794;7.054;2023-12-14T04:41:38;63.00;;;26.20;;
72924;SDS011;61070;50.794;7.054;2023-12-14T04:42:38;61.50;;;27.52;;
72924;SDS011;61070;50.794;7.054;2023-12-14T04:43:38;51.10;;;24.55;;
72924;SDS011;61070;50.794;7.054;2023-12-14T04:44:38;52.38;;;24.80;;
72924;SDS011;61070;50.794;7.054;2023-12-14T04:45:39;49.95;;;24.38;;
72924;SDS011;61070;50.794;7.054;2023-12-14T04:46:39;44.95;;;24.13;;
72924;SDS011;61070;50.794;7.054;2023-12-14T04:47:39;47.35;;;24.10;;
72924;SDS011;61070;50.794;7.054;2023-12-14T04:48:40;46.53;;;23.98;;
72924;SDS011;61070;50.794;7.054;2023-12-14T04:49:40;47.15;;;23.63;;
72924;SDS011;61070;50.794;7.054;2023-12-14T04:50:40;45.78;;;23.65;;
72924;SDS011;61070;50.794;7.054;2023-12-14T04:51:41;42.95;;;23.15;;
72924;SDS011;61070;50.794;7.054;2023-12-14T04:52:42;44.35;;;23.08;;
72924;SDS011;61070;50.794;7.054;2023-12-14T04:53:42;44.50;;;21.98;;
72924;SDS011;61070;50.794;7.054;2023-12-14T04:54:43;40.33;;;22.48;;
72924;SDS011;61070;50.794;7.054;2023-12-14T04:55:43;43.00;;;22.80;;
72924;SDS011;61070;50.794;7.054;2023-12-14T04:56:46;41.08;;;21.98;;
72924;SDS011;61070;50.794;7.054;2023-12-14T04:57:47;42.65;;;22.40;;
72924;SDS011;61070;50.794;7.054;2023-12-14T04:58:48;40.13;;;22.23;;
72924;SDS011;61070;50.794;7.054;2023-12-14T04:59:49;40.80;;;21.90;;
72924;SDS011;61070;50.794;7.054;2023-12-14T05:00:49;39.20;;;20.83;;
72924;SDS011;61070;50.794;7.054;2023-12-14T05:01:50;42.85;;;22.70;;
72924;SDS011;61070;50.794;7.054;2023-12-14T05:02:50;39.00;;;21.95;;
72924;SDS011;61070;50.794;7.054;2023-12-14T05:03:50;45.08;;;22.60;;
72924;SDS011;61070;50.794;7.054;2023-12-14T05:04:51;41.05;;;21.83;;
72924;SDS011;61070;50.794;7.054;2023-12-14T05:05:51;42.30;;;21.98;;
72924;SDS011;61070;50.794;7.054;2023-12-14T05:06:51;41.42;;;22.27;;
72924;SDS011;61070;50.794;7.054;2023-12-14T05:07:51;41.03;;;22.85;;
72924;SDS011;61070;50.794;7.054;2023-12-14T05:08:52;39.05;;;21.23;;
72924;SDS011;61070;50.794;7.054;2023-12-14T05:09:52;39.45;;;21.40;;
72924;SDS011;61070;50.794;7.054;2023-12-14T05:10:52;38.30;;;20.17;;
72924;SDS011;61070;50.794;7.054;2023-12-14T05:11:52;40.72;;;21.98;;
72924;SDS011;61070;50.794;7.054;2023-12-14T05:12:53;36.88;;;22.10;;
72924;SDS011;61070;50.794;7.054;2023-12-14T05:13:53;36.10;;;20.48;;
72924;SDS011;61070;50.794;7.054;2023-12-14T05:14:53;38.78;;;22.67;;
72924;SDS011;61070;50.794;7.054;2023-12-14T05:15:53;45.65;;;22.38;;
72924;SDS011;61070;50.794;7.054;2023-12-14T05:16:54;44.38;;;24.70;;
72924;SDS011;61070;50.794;7.054;2023-12-14T05:17:54;39.50;;;22.27;;
72924;SDS011;61070;50.794;7.054;2023-12-14T05:18:54;43.13;;;23.73;;
72924;SDS011;61070;50.794;7.054;2023-12-14T05:19:55;46.03;;;23.77;;
72924;SDS011;61070;50.794;7.054;2023-12-14T05:20:56;48.92;;;24.27;;
72924;SDS011;61070;50.794;7.054;2023-12-14T05:21:56;46.40;;;23.85;;
72924;SDS011;61070;50.794;7.054;2023-12-14T05:22:56;45.50;;;24.48;;
72924;SDS011;61070;50.794;7.054;2023-12-14T05:23:56;44.60;;;24.20;;
72924;SDS011;61070;50.794;7.054;2023-12-14T05:24:57;52.70;;;25.08;;
72924;SDS011;61070;50.794;7.054;2023-12-14T05:25:57;53.78;;;25.83;;
72924;SDS011;61070;50.794;7.054;2023-12-14T05:26:57;48.35;;;25.30;;
72924;SDS011;61070;50.794;7.054;2023-12-14T05:27:58;57.78;;;27.23;;
72924;SDS011;61070;50.794;7.054;2023-12-14T05:28:58;64.30;;;30.25;;
72924;SDS011;61070;50.794;7.054;2023-12-14T05:29:58;61.88;;;29.55;;
72924;SDS011;61070;50.794;7.054;2023-12-14T05:30:58;59.20;;;29.58;;
72924;SDS011;61070;50.794;7.054;2023-12-14T05:31:59;65.22;;;30.60;;
72924;SDS011;61070;50.794;7.054;2023-12-14T05:32:59;57.28;;;28.25;;
72924;SDS011;61070;50.794;7.054;2023-12-14T05:33:59;62.33;;;29.90;;
72924;SDS011;61070;50.794;7.054;2023-12-14T05:35:00;63.88;;;31.10;;
72924;SDS011;61070;50.794;7.054;2023-12-14T05:36:00;63.47;;;29.88;;
72924;SDS011;61070;50.794;7.054;2023-12-14T05:37:00;63.13;;;29.40;;
72924;SDS011;61070;50.794;7.054;2023-12-14T05:38:00;65.43;;;30.20;;
72924;SDS011;61070;50.794;7.054;2023-12-14T05:39:01;63.20;;;33.03;;
72924;SDS011;61070;50.794;7.054;2023-12-14T05:40:02;72.50;;;32.70;;
72924;SDS011;61070;50.794;7.054;2023-12-14T05:41:03;68.75;;;32.70;;
72924;SDS011;61070;50.794;7.054;2023-12-14T05:42:03;72.45;;;32.10;;
72924;SDS011;61070;50.794;7.054;2023-12-14T05:43:03;71.28;;;34.42;;
72924;SDS011;61070;50.794;7.054;2023-12-14T05:44:04;71.38;;;32.83;;
72924;SDS011;61070;50.794;7.054;2023-12-14T05:45:05;65.60;;;31.08;;
72924;SDS011;61070;50.794;7.054;2023-12-14T05:46:06;69.97;;;29.27;;
72924;SDS011;61070;50.794;7.054;2023-12-14T05:47:06;69.30;;;31.48;;
72924;SDS011;61070;50.794;7.054;2023-12-14T05:48:07;62.35;;;31.73;;
72924;SDS011;61070;50.794;7.054;2023-12-14T05:49:07;59.30;;;29.10;;
72924;SDS011;61070;50.794;7.054;2023-12-14T05:50:07;61.08;;;30.67;;
72924;SDS011;61070;50.794;7.054;2023-12-14T05:51:09;69.40;;;32.25;;
72924;SDS011;61070;50.794;7.054;2023-12-14T05:52:10;69.57;;;32.65;;
72924;SDS011;61070;50.794;7.054;2023-12-14T05:53:11;71.38;;;31.85;;